Latest Coastal Weather Observations for Troughton Island

IDD60701

Issued at 7:31 pm CST Saturday 31 January 2015 (issued every 10 minutes, with the page automatically refreshed every 10 minutes)

About coastal observations | Map of coastal stations | Coastal observations for NT | Marine services | Other Formats
Station Details ID: 001007 Name: TROUGHTON ISLAND Lat: -13.75 Lon: 126.15 Height: 6.0 m
Data from the previous 72 hours. | See also: Recent months at Troughton Island
Date/Time
CST
Temp

°C
Wind Pressure Rain
since 9am
mm
Weather Cloud Vis
km
Sea
Height
m
Swell
Dir
 
Speed
knots
Gust
knots
hPa Trend Height
m
Period
s
Dir
31/07:30pm 29.4 W 16 19 1007.3 - 0.0 - - - - - - -
31/07:00pm 29.8 W 17 21 1007.1 - 0.0 - - - - - - -
31/06:30pm 30.2 W 17 20 1006.6 - 0.0 - - - - - - -
31/06:00pm 30.5 W 16 18 1006.4 - 0.0 - - - - - - -
31/05:30pm 30.8 WSW 16 19 1006.3 - 0.0 - - - - - - -
31/05:00pm 31.3 W 16 20 1006.4 - 0.0 - - - - - - -
31/04:30pm 31.3 W 17 20 1006.7 - 0.0 - - - - - - -
31/04:00pm 32.1 W 17 19 1007.4 - 0.0 - - - - - - -
31/03:30pm 31.9 W 16 19 1007.9 - 0.0 - - - - - - -
31/03:00pm 31.8 W 14 19 1008.2 - 0.0 - - - - - - -
31/02:30pm 31.1 WSW 16 18 1008.4 - 0.0 - - - - - - -
31/02:00pm 32.1 WSW 14 16 1008.8 - 0.0 - - - - - - -
31/01:30pm 32.0 WSW 14 17 1009.0 - 0.0 - - - - - - -
31/01:00pm 32.2 WSW 13 15 1009.3 - 0.0 - - - - - - -
31/12:30pm 31.7 SW 12 14 1009.7 - 0.0 - - - - - - -
31/12:00pm 31.5 WSW 13 16 1010.0 - 0.0 - - - - - - -
31/11:30am 31.6 WSW 12 15 1010.3 - 0.0 - - - - - - -
31/11:00am 30.3 SW 8 13 1010.4 - 0.0 - - - - - - -
31/10:30am 29.7 SW 14 17 1010.5 - 0.0 - - - - - - -
31/10:00am 30.0 WSW 14 16 1010.3 - 0.0 - - - - - - -
31/09:30am 29.5 WSW 14 16 1010.4 - 0.0 - - - - - - -
31/09:00am 29.3 WSW 14 16 1010.0 - 0.0 - - - - - - -
31/08:30am 29.0 WSW 15 18 1009.8 - 0.0 - - - - - - -
31/07:30am 28.7 WSW 16 18 1008.9 - 0.0 - - - - - - -
31/07:00am 28.6 WSW 16 18 1008.8 - 0.0 - - - - - - -
31/06:30am 28.6 WSW 15 18 1008.7 - 0.0 - - - - - - -
31/06:00am 28.5 WSW 15 17 1008.4 - 0.0 - - - - - - -
31/05:30am 28.6 WSW 15 18 1008.3 - 0.0 - - - - - - -
31/05:00am 28.4 SW 13 16 1008.1 - 0.0 - - - - - - -
31/04:30am 28.4 SW 12 15 1008.1 - 0.0 - - - - - - -
31/04:00am 28.4 WSW 14 16 1008.3 - 0.0 - - - - - - -
31/03:30am 28.3 WSW 14 16 1008.3 - 0.0 - - - - - - -
31/03:00am 28.3 WSW 13 16 1008.4 - 0.0 - - - - - - -
31/02:30am 28.3 WSW 13 15 1008.3 - 0.0 - - - - - - -
31/02:00am 28.4 W 13 16 1008.6 - 0.0 - - - - - - -
31/01:30am 28.4 W 12 14 1008.6 - 0.0 - - - - - - -
31/01:00am 28.4 W 12 14 1009.1 - 0.0 - - - - - - -
31/12:30am 28.5 W 13 15 1009.5 - 0.0 - - - - - - -
31/12:00am 28.7 WSW 12 13 1009.8 - 0.0 - - - - - - -
 
Date/Time
CST
Temp

°C
Wind Pressure Rain
since 9am
mm
Weather Cloud Vis
km
Sea
Height
m
Swell
Dir
 
Speed
knots
Gust
knots
hPa Trend Height
m
Period
s
Dir
30/11:30pm 28.7 WSW 12 15 1009.8 - 0.0 - - - - - - -
30/11:00pm 28.7 WSW 14 18 1010.0 - 0.0 - - - - - - -
30/10:30pm 28.8 W 15 18 1009.5 - 0.0 - - - - - - -
30/10:00pm 28.7 W 15 17 1009.2 - 0.0 - - - - - - -
30/09:30pm 28.8 W 16 18 1008.8 - 0.0 - - - - - - -
30/09:00pm 28.9 W 14 16 1008.2 - 0.0 - - - - - - -
30/08:30pm 28.9 W 14 17 1007.8 - 0.0 - - - - - - -
30/08:00pm 28.8 W 13 15 1007.3 - 0.0 - - - - - - -
30/07:30pm 28.9 WSW 13 16 1006.6 - 0.0 - - - - - - -
30/07:00pm 29.0 W 14 16 1006.3 - 0.0 - - - - - - -
30/06:30pm 29.9 W 14 17 1006.0 - 0.0 - - - - - - -
30/06:00pm 29.9 W 15 17 1005.9 - 0.0 - - - - - - -
30/05:30pm 30.6 W 15 19 1006.2 - 0.0 - - - - - - -
30/05:00pm 30.6 W 16 19 1006.5 - 0.0 - - - - - - -
30/04:30pm 30.8 W 16 20 1006.5 - 0.0 - - - - - - -
30/04:00pm 31.3 W 17 19 1006.7 - 0.0 - - - - - - -
30/03:30pm 31.7 W 15 19 1006.5 - 0.0 - - - - - - -
30/03:00pm 31.2 W 16 19 1006.7 - 0.0 - - - - - - -
30/02:30pm 31.7 W 12 15 1007.1 - 0.0 - - - - - - -
30/02:00pm 32.2 W 11 14 1007.6 - 0.0 - - - - - - -
30/01:30pm 32.0 W 11 13 1008.1 - 0.0 - - - - - - -
30/01:00pm 31.7 W 9 11 1008.6 - 0.0 - - - - - - -
30/12:30pm 31.6 WSW 9 11 1008.9 - 0.0 - - - - - - -
30/12:00pm 31.3 W 9 11 1009.2 - 0.0 - - - - - - -
30/11:30am 31.1 W 9 12 1009.3 - 0.0 - - - - - - -
30/11:00am 30.9 W 9 11 1009.6 - 0.0 - - - - - - -
30/10:30am 30.7 W 10 12 1009.6 - 0.0 - - - - - - -
30/10:00am 30.5 W 8 10 1009.3 - 0.0 - - - - - - -
30/09:30am 29.8 W 9 11 1009.2 - 0.0 - - - - - - -
30/09:00am 29.3 W 7 9 1008.9 - 0.0 - - - - - - -
30/08:30am 28.7 W 6 7 1008.5 - 0.0 - - - - - - -
30/08:00am 27.9 W 5 6 1008.3 - 0.0 - - - - - - -
30/07:30am 26.9 W 3 4 1007.9 - 0.0 - - - - - - -
30/07:00am 26.7 SW 3 5 1007.6 - 0.0 - - - - - - -
30/06:30am 27.1 S 5 6 1007.2 - 0.0 - - - - - - -
30/06:00am 27.2 S 7 8 1006.9 - 0.0 - - - - - - -
30/05:30am 27.3 S 9 10 1006.7 - 0.0 - - - - - - -
30/05:00am 27.4 S 8 11 1006.6 - 0.0 - - - - - - -
30/04:30am 27.2 SSE 8 10 1006.3 - 0.0 - - - - - - -
30/04:00am 27.1 SSE 8 10 1006.4 - 0.0 - - - - - - -
30/03:30am 27.1 S 9 11 1006.6 - 0.0 - - - - - - -
30/03:00am 27.3 S 10 12 1006.9 - 0.0 - - - - - - -
30/02:30am 27.2 S 7 11 1007.4 - 0.0 - - - - - - -
30/02:00am 27.7 SW 10 13 1007.7 - 0.0 - - - - - - -
30/01:30am 28.4 W 13 16 1008.0 - 0.0 - - - - - - -
30/01:00am 28.5 W 13 16 1008.4 - 0.0 - - - - - - -
30/12:30am 28.4 WNW 13 15 1008.7 - 0.0 - - - - - - -
30/12:00am 28.5 WNW 14 16 1008.9 - 0.0 - - - - - - -
 
Date/Time
CST
Temp

°C
Wind Pressure Rain
since 9am
mm
Weather Cloud Vis
km
Sea
Height
m
Swell
Dir
 
Speed
knots
Gust
knots
hPa Trend Height
m
Period
s
Dir
29/11:30pm 28.6 WNW 14 15 1008.9 - 0.0 - - - - - - -
29/11:00pm 28.6 WNW 12 15 1008.7 - 0.0 - - - - - - -
29/10:30pm 28.6 WNW 11 13 1008.8 - 0.0 - - - - - - -
29/10:00pm 28.5 NW 10 12 1008.7 - 0.0 - - - - - - -
29/09:30pm 28.6 NW 10 11 1008.4 - 0.0 - - - - - - -
29/09:00pm 28.5 NW 9 11 1007.8 - 0.0 - - - - - - -
29/08:30pm 28.5 NW 9 11 1007.4 - 0.0 - - - - - - -
29/08:00pm 28.5 NW 8 10 1006.7 - 0.0 - - - - - - -
29/07:30pm 28.8 WNW 7 9 1006.1 - 0.0 - - - - - - -
29/07:00pm 29.3 NW 7 9 1005.7 - 0.0 - - - - - - -
29/06:30pm 30.2 WNW 6 8 1005.2 - 0.0 - - - - - - -
29/06:00pm 30.6 NW 7 9 1005.1 - 0.0 - - - - - - -
29/05:30pm 30.5 NNW 7 9 1004.7 - 0.0 - - - - - - -
29/05:00pm 30.8 NW 5 8 1004.7 - 0.0 - - - - - - -
29/04:30pm 30.8 NW 6 8 1004.6 - 0.0 - - - - - - -
29/04:00pm 30.7 NW 7 9 1005.3 - 0.0 - - - - - - -
29/03:30pm 30.7 WNW 6 7 1005.4 - 0.0 - - - - - - -
29/03:00pm 30.9 WSW 5 5 1005.6 - 0.0 - - - - - - -
29/02:30pm 31.0 SW 5 6 1006.1 - 0.0 - - - - - - -
29/02:00pm 31.2 ESE 5 6 1006.3 - 0.0 - - - - - - -
29/01:30pm 30.5 ESE 4 7 1006.8 - 0.0 - - - - - - -
29/01:00pm 30.3 SE 6 8 1007.4 - 0.0 - - - - - - -
29/12:30pm 30.1 SE 6 9 1007.7 - 0.0 - - - - - - -
29/12:00pm 30.7 ESE 7 10 1008.3 - 0.0 - - - - - - -
29/11:30am 30.1 SSE 10 13 1008.5 - 0.0 - - - - - - -
29/11:00am 30.2 SE 10 13 1008.5 - 0.0 - - - - - - -
29/10:30am 29.3 SE 12 14 1008.7 - 0.0 - - - - - - -
29/10:00am 28.1 ESE 12 15 1009.0 - 0.0 - - - - - - -
29/09:30am 28.2 ESE 11 13 1009.0 - 0.0 - - - - - - -
29/09:00am 27.7 ESE 10 13 1008.7 - 0.0 - - - - - - -
29/08:30am 27.7 ESE 8 11 1008.3 - 0.0 - - - - - - -
29/08:00am 27.9 SE 6 7 1007.7 - 0.0 - - - - - - -
29/07:30am 27.3 SSE 8 10 1007.1 - 0.0 - - - - - - -
29/07:00am 27.3 S 8 10 1006.7 - 0.0 - - - - - - -
29/06:30am 27.8 SSW 11 14 1005.9 - 0.0 - - - - - - -
29/06:00am 27.6 SW 10 15 1005.3 - 0.0 - - - - - - -
29/05:30am 27.4 SW 13 16 1005.1 - 0.0 - - - - - - -
29/05:00am 27.9 SSW 14 16 1004.7 - 0.0 - - - - - - -
29/04:30am 27.8 SSW 10 11 1004.4 - 0.0 - - - - - - -
29/04:00am 27.4 S 8 11 1004.4 - 0.0 - - - - - - -
29/03:30am 26.6 SSW 11 14 1004.5 - 0.0 - - - - - - -
29/03:00am 26.7 SSW 18 21 1005.3 - 0.0 - - - - - - -
29/02:30am 27.1 SSW 18 21 1005.8 - 0.0 - - - - - - -
29/02:00am 26.9 SSW 17 20 1006.1 - 0.0 - - - - - - -
29/01:30am 26.5 S 19 23 1007.0 - 0.0 - - - - - - -
29/01:00am 28.3 S 13 20 1007.3 - 0.0 - - - - - - -
29/12:30am 28.0 S 11 14 1007.3 - 0.0 - - - - - - -
29/12:00am 28.0 S 15 19 1007.5 - 0.0 - - - - - - -
 
Date/Time
CST
Temp

°C
Wind Pressure Rain
since 9am
mm
Weather Cloud Vis
km
Sea
Height
m
Swell
Dir
 
Speed
knots
Gust
knots
hPa Trend Height
m
Period
s
Dir
28/11:30pm 29.1 WSW 10 11 1007.4 - 0.0 - - - - - - -
28/11:00pm 29.3 W 11 13 1007.7 - 0.0 - - - - - - -
28/10:30pm 29.2 W 11 14 1007.1 - 0.0 - - - - - - -
28/10:00pm 29.1 W 10 12 1006.4 - 0.0 - - - - - - -
28/09:30pm 29.2 W 12 14 1006.6 - 0.0 - - - - - - -

Other Formats:

Comma delimited format used in spreadsheet applications
http://www.bom.gov.au/fwo/IDD60701/IDD60701.94102.axf

JavaScript Object Notation format (JSON) in row-major order
http://www.bom.gov.au/fwo/IDD60701/IDD60701.94102.json